aviador You're here:

KJEF Decoded Metar

JEFFERSON CITY in MO, USA
Report Time2018-01-21 17:53:00
UTC Time2018-01-21 18:18:57
Flight Rules vfr VFR
Wind190° at 13 Gusting to 23 kt
W.Decomp.*RWY 12: 5.1 kt HW 12.0 kt RCW
RWY 27: 1.6 kt HW 12.9 kt LCW
W.Rank190° ranks 17
Current wind is above 190° avg. (7.9)
Visibility9999 m
Phenomena:N/A
Clouds:Few 034 Hf
Expected CloudBase > 3,200 ft AGL from Temp-Dew spread
CeilingNone
Temp20°C (ISA +6)
Dew Point12°C (60% RH)
AAT15.9°C
QNH1010 hPa
Density Alt1,555 ft
Elevation551 ft
Report Wrong Elevation
Raw Report
KJEF 211753Z 19013G23KT 10SM FEW034 20/12 A2982 RMK AO2 PK WND
19026/1743 SLP089 T02000117 10200 20028 58023=

Extra information for KJEF:More info

Metar Taf Metar & Taf Last 4 Metars F.Rules Stats Wind Profile Meteogram Temp Stats Airport Information Weather charts Add Link Nearby VenuesMetar ALERT Operation Metar Decoded Social comments

AIRNAV info for KJEF